Time;durP1;ratioP1;P1;durP2;ratioP2;P2;SDS_P1;SDS_P2;PMS_P1;PMS_P2;Temp;Humidity;BMP_temperature;BMP_pressure;BME280_temperature;BME280_humidity;BME280_pressure;Samples;Min_cycle;Max_cycle;Signal;HPM_P1;HPM_P2
2023/12/26 00:00:24;;;;;;;1.43;1.00;;;;;;;7.70;100.00;97884.66;5056879;28;20318;-79
2023/12/26 00:02:50;;;;;;;5.40;1.40;;;;;;;7.72;100.00;97882.75;5057774;28;20237;-79
2023/12/26 00:05:17;;;;;;;2.00;1.10;;;;;;;7.81;100.00;97881.34;5060151;28;20252;-79
2023/12/26 00:07:44;;;;;;;1.20;1.10;;;;;;;7.93;100.00;97870.06;5060721;28;20296;-79
2023/12/26 00:10:12;;;;;;;1.27;1.10;;;;;;;7.99;100.00;97860.00;5059921;28;20680;-79
2023/12/26 00:12:39;;;;;;;2.83;1.10;;;;;;;8.07;100.00;97856.88;5059405;28;20233;-80
2023/12/26 00:15:06;;;;;;;1.50;1.00;;;;;;;8.20;100.00;97847.31;5060221;28;20393;-79
2023/12/26 00:17:32;;;;;;;2.83;1.00;;;;;;;8.23;100.00;97847.09;5060206;28;20206;-79
2023/12/26 00:19:59;;;;;;;1.73;1.10;;;;;;;8.37;100.00;97839.13;5060209;28;20289;-79
2023/12/26 00:22:34;;;;;;;3.87;1.13;;;;;;;8.42;100.00;97842.31;5059445;28;20237;-79
2023/12/26 00:25:01;;;;;;;3.73;1.30;;;;;;;8.45;100.00;97837.69;5059613;28;20283;-79
2023/12/26 00:27:30;;;;;;;0.80;0.80;;;;;;;8.45;100.00;97836.88;5059312;28;20293;-79
2023/12/26 00:29:57;;;;;;;1.70;1.20;;;;;;;8.47;100.00;97845.50;5060036;28;20278;-79
2023/12/26 00:32:24;;;;;;;1.20;1.10;;;;;;;8.56;100.00;97837.00;5059394;28;20230;-79
2023/12/26 00:34:49;;;;;;;2.07;1.20;;;;;;;8.61;100.00;97838.38;5059665;28;20381;-80
2023/12/26 00:37:16;;;;;;;1.10;1.00;;;;;;;8.63;100.00;97835.66;5060382;28;20237;-80
2023/12/26 00:39:43;;;;;;;1.60;1.00;;;;;;;8.62;100.00;97839.25;5059784;28;20294;-79
2023/12/26 00:42:11;;;;;;;1.60;1.00;;;;;;;8.60;100.00;97833.22;5057671;28;20650;-80
2023/12/26 00:44:39;;;;;;;1.30;0.97;;;;;;;8.66;100.00;97835.44;5058809;28;20242;-78
2023/12/26 00:47:05;;;;;;;1.20;1.00;;;;;;;8.68;100.00;97833.53;5057964;28;20736;-78
2023/12/26 00:49:32;;;;;;;1.30;1.10;;;;;;;8.65;100.00;97834.63;5059376;28;20740;-79
2023/12/26 00:51:59;;;;;;;2.40;1.00;;;;;;;8.68;100.00;97842.31;5059552;28;20268;-79
2023/12/26 00:54:25;;;;;;;1.47;0.90;;;;;;;8.71;99.43;97830.72;5059058;28;20247;-80
2023/12/26 00:56:52;;;;;;;2.20;1.00;;;;;;;8.74;99.21;97830.50;5057153;28;20253;-80
2023/12/26 00:59:18;;;;;;;1.00;0.87;;;;;;;8.68;99.11;97834.41;5055391;28;20376;-80
2023/12/26 01:01:46;;;;;;;1.30;1.00;;;;;;;8.70;99.66;97840.41;5057131;28;20740;-78
2023/12/26 01:04:13;;;;;;;2.53;0.90;;;;;;;8.69;99.71;97840.53;5058947;28;20309;-78
2023/12/26 01:06:39;;;;;;;2.33;1.13;;;;;;;8.68;99.44;97844.09;5057994;28;20302;-79
2023/12/26 01:09:06;;;;;;;2.47;1.00;;;;;;;8.68;99.50;97844.09;5057115;28;20243;-78
2023/12/26 01:11:33;;;;;;;1.30;1.00;;;;;;;8.65;99.90;97854.84;5058302;28;20290;-78
2023/12/26 01:13:59;;;;;;;1.77;1.20;;;;;;;8.66;100.00;97862.66;5056668;28;20215;-80
2023/12/26 01:16:27;;;;;;;2.73;1.00;;;;;;;8.69;99.85;97857.16;5057319;28;20671;-78
2023/12/26 01:18:55;;;;;;;2.20;1.03;;;;;;;8.67;99.65;97858.19;5057949;28;20219;-78
2023/12/26 01:21:22;;;;;;;1.90;1.10;;;;;;;8.62;99.91;97862.97;5058571;28;20345;-81
2023/12/26 01:23:48;;;;;;;2.90;1.00;;;;;;;8.62;100.00;97870.84;5059565;28;20274;-79
2023/12/26 01:26:15;;;;;;;2.73;0.97;;;;;;;8.57;100.00;97868.50;5059758;28;20260;-80
2023/12/26 01:28:41;;;;;;;3.13;1.27;;;;;;;8.50;100.00;97876.94;5060564;28;20229;-79
2023/12/26 01:31:08;;;;;;;1.70;0.97;;;;;;;8.50;100.00;97875.13;5060520;28;20315;-79
2023/12/26 01:33:34;;;;;;;1.13;1.10;;;;;;;8.49;100.00;97877.84;5060185;28;20272;-78
2023/12/26 01:36:02;;;;;;;2.20;1.30;;;;;;;8.48;100.00;97884.06;5059586;28;20310;-79
2023/12/26 01:38:29;;;;;;;2.13;1.37;;;;;;;8.55;100.00;97882.72;5060251;28;20314;-80
2023/12/26 01:40:55;;;;;;;2.17;1.03;;;;;;;8.50;100.00;97882.19;5055696;28;20235;-80
2023/12/26 01:43:22;;;;;;;1.47;1.20;;;;;;;8.48;100.00;97886.69;5056315;28;20297;-80
2023/12/26 01:45:52;;;;;;;1.60;1.07;;;;;;;8.51;100.00;97889.16;5055738;28;20231;-80
2023/12/26 01:48:18;;;;;;;1.30;1.07;;;;;;;8.54;100.00;97895.06;5060239;28;20302;-79
2023/12/26 01:50:45;;;;;;;2.83;1.33;;;;;;;8.54;100.00;97895.06;5060952;28;20239;-79
2023/12/26 01:53:14;;;;;;;0.90;0.90;;;;;;;8.51;100.00;97891.78;5061574;28;20270;-78
2023/12/26 01:55:42;;;;;;;1.40;1.00;;;;;;;8.51;100.00;97903.13;5060891;28;20209;-81
2023/12/26 01:58:08;;;;;;;3.07;1.10;;;;;;;8.49;100.00;97914.72;5058288;28;20218;-78
2023/12/26 02:00:35;;;;;;;1.37;1.07;;;;;;;8.50;100.00;97909.34;5058689;28;20242;-78
2023/12/26 02:03:02;;;;;;;1.60;1.27;;;;;;;8.47;100.00;97911.34;5055490;28;20345;-78
2023/12/26 02:05:29;;;;;;;1.60;1.00;;;;;;;8.44;100.00;97919.47;5057759;28;20234;-78
2023/12/26 02:07:55;;;;;;;2.97;1.30;;;;;;;8.46;100.00;97920.19;5058191;28;20261;-79
2023/12/26 02:10:23;;;;;;;2.17;1.00;;;;;;;8.44;100.00;97914.19;5059198;28;20238;-79
2023/12/26 02:12:50;;;;;;;1.53;1.10;;;;;;;8.39;100.00;97911.00;5058318;28;20233;-79
2023/12/26 02:15:16;;;;;;;1.67;1.10;;;;;;;8.40;100.00;97910.88;5058671;28;20290;-79
2023/12/26 02:17:44;;;;;;;2.10;1.30;;;;;;;8.41;100.00;97904.69;5058717;28;20233;-79
2023/12/26 02:20:11;;;;;;;1.57;1.00;;;;;;;8.38;100.00;97915.41;5058181;28;20220;-79
2023/12/26 02:22:38;;;;;;;1.27;0.97;;;;;;;8.42;100.00;97918.69;5058350;28;20230;-79
2023/12/26 02:25:07;;;;;;;1.20;0.90;;;;;;;8.45;100.00;97915.88;5058141;28;20364;-79
2023/12/26 02:27:37;;;;;;;2.40;1.10;;;;;;;8.44;100.00;97919.47;5058915;28;20536;-79
2023/12/26 02:30:06;;;;;;;2.03;1.17;;;;;;;8.47;100.00;97919.25;5058407;28;20218;-79
2023/12/26 02:32:35;;;;;;;0.87;0.80;;;;;;;8.40;100.00;97923.22;5058771;28;20318;-79
2023/12/26 02:35:02;;;;;;;0.77;0.77;;;;;;;8.39;100.00;97921.53;5058939;28;20294;-79
2023/12/26 02:37:30;;;;;;;1.70;1.10;;;;;;;8.34;100.00;97926.25;5058772;28;20246;-79
2023/12/26 02:39:56;;;;;;;2.23;1.10;;;;;;;8.30;100.00;97932.63;5059486;28;20590;-78
2023/12/26 02:42:29;;;;;;;1.40;0.80;;;;;;;8.26;100.00;97931.16;5059689;28;20374;-79
2023/12/26 02:44:56;;;;;;;3.13;1.07;;;;;;;8.25;100.00;97930.28;5058604;28;20238;-78
2023/12/26 02:47:23;;;;;;;1.00;0.90;;;;;;;8.15;100.00;97938.84;5059276;28;20225;-79
2023/12/26 02:49:49;;;;;;;1.87;1.00;;;;;;;8.12;100.00;97944.28;5059374;28;20210;-79
2023/12/26 02:52:17;;;;;;;1.37;1.07;;;;;;;8.05;100.00;97945.59;5059130;28;20261;-79
2023/12/26 02:54:44;;;;;;;1.13;1.03;;;;;;;8.00;100.00;97950.31;5059375;28;20233;-79
2023/12/26 02:57:10;;;;;;;1.60;1.20;;;;;;;7.94;100.00;97955.94;5057370;28;20217;-79
2023/12/26 02:59:38;;;;;;;1.37;1.00;;;;;;;7.96;100.00;97954.09;5057736;28;20322;-79
2023/12/26 03:02:05;;;;;;;2.47;1.13;;;;;;;7.93;100.00;97954.25;5057936;28;20278;-79
2023/12/26 03:04:32;;;;;;;1.03;0.93;;;;;;;7.95;100.00;97952.41;5057393;28;20300;-78
2023/12/26 03:06:58;;;;;;;1.73;1.13;;;;;;;7.96;100.00;97941.75;5057370;28;20241;-78
2023/12/26 03:09:25;;;;;;;1.90;1.10;;;;;;;7.97;100.00;97947.88;5057501;28;20277;-80
2023/12/26 03:11:51;;;;;;;1.47;1.10;;;;;;;7.96;100.00;97941.75;5056155;28;20244;-79
2023/12/26 03:14:18;;;;;;;1.67;1.00;;;;;;;7.92;100.00;97934.16;5057740;28;20248;-79
2023/12/26 03:16:46;;;;;;;1.40;0.83;;;;;;;7.93;100.00;97933.22;5057491;28;20295;-79
2023/12/26 03:19:12;;;;;;;1.23;1.10;;;;;;;7.92;100.00;97934.16;5057848;28;20642;-79
2023/12/26 03:21:39;;;;;;;1.27;0.80;;;;;;;8.00;99.70;97927.47;5057391;28;20231;-79
2023/12/26 03:24:06;;;;;;;2.80;1.00;;;;;;;8.02;99.13;97935.28;5057677;28;20239;-79
2023/12/26 03:26:33;;;;;;;1.63;1.00;;;;;;;8.07;99.66;97938.44;5058121;28;20237;-79
2023/12/26 03:28:59;;;;;;;1.93;1.00;;;;;;;8.14;97.34;97924.00;5057433;28;20239;-81
2023/12/26 03:31:26;;;;;;;1.17;1.07;;;;;;;8.14;97.27;97926.63;5053159;28;20715;-78
2023/12/26 03:33:55;;;;;;;2.10;1.00;;;;;;;8.13;98.18;97930.19;5053941;28;20216;-80
2023/12/26 03:36:24;;;;;;;2.07;1.00;;;;;;;8.18;98.24;97931.59;5060438;28;20210;-79
2023/12/26 03:38:50;;;;;;;2.70;1.33;;;;;;;8.23;98.32;97928.69;5063190;28;20282;-79
2023/12/26 03:41:17;;;;;;;2.27;1.03;;;;;;;8.17;98.26;97942.22;5063496;28;20301;-79
2023/12/26 03:43:44;;;;;;;1.13;0.97;;;;;;;8.15;98.77;97936.22;5063598;28;20773;-79
2023/12/26 03:46:11;;;;;;;1.67;0.90;;;;;;;8.18;99.02;97941.25;5063457;28;20817;-79
2023/12/26 03:48:37;;;;;;;2.30;0.87;;;;;;;8.16;98.44;97943.16;5063711;28;20217;-79
2023/12/26 03:51:05;;;;;;;1.97;0.80;;;;;;;8.15;98.60;97939.66;5062664;28;20247;-79
2023/12/26 03:53:32;;;;;;;1.93;1.07;;;;;;;8.12;99.07;97939.03;5062906;28;20210;-79
2023/12/26 03:55:58;;;;;;;1.13;0.90;;;;;;;8.16;96.64;97930.84;5061024;28;20289;-79
2023/12/26 03:58:25;;;;;;;3.67;1.00;;;;;;;8.20;94.18;97918.38;5062625;28;20251;-79
2023/12/26 04:00:51;;;;;;;3.77;0.90;;;;;;;8.24;94.47;97918.06;5062497;28;20256;-79
2023/12/26 04:03:18;;;;;;;1.37;0.90;;;;;;;8.27;94.95;97932.84;5062321;28;20728;-79
2023/12/26 04:05:45;;;;;;;1.57;1.07;;;;;;;8.31;94.90;97921.16;5062209;28;20249;-79
2023/12/26 04:08:13;;;;;;;1.90;0.90;;;;;;;8.25;94.98;97925.03;5062015;28;20274;-79
2023/12/26 04:10:39;;;;;;;1.87;0.80;;;;;;;8.26;95.55;97926.72;5061343;28;20299;-79
2023/12/26 04:13:06;;;;;;;1.17;1.00;;;;;;;8.25;94.97;97925.03;5062205;28;20294;-79
2023/12/26 04:15:32;;;;;;;1.70;1.00;;;;;;;8.28;94.76;97930.13;5061965;28;20308;-79
2023/12/26 04:17:59;;;;;;;0.83;0.80;;;;;;;8.31;93.39;97908.84;5061604;28;20321;-79
2023/12/26 04:20:26;;;;;;;1.40;1.00;;;;;;;8.33;92.96;97912.22;5061735;28;20226;-79
2023/12/26 04:22:52;;;;;;;1.80;1.07;;;;;;;8.40;90.53;97905.59;5062058;28;20326;-79
2023/12/26 04:25:22;;;;;;;1.33;1.00;;;;;;;8.46;90.44;97907.84;5061504;28;20325;-79
2023/12/26 04:27:48;;;;;;;2.37;1.17;;;;;;;8.45;90.14;97911.44;5062758;28;20589;-79
2023/12/26 04:30:17;;;;;;;2.50;1.10;;;;;;;8.48;89.44;97905.97;5063065;28;20234;-79
2023/12/26 04:32:43;;;;;;;3.27;1.27;;;;;;;8.54;87.69;97899.47;5062607;28;20302;-79
2023/12/26 04:35:10;;;;;;;2.23;1.07;;;;;;;8.60;87.75;97906.97;5062324;28;20303;-79
2023/12/26 04:37:37;;;;;;;3.23;1.10;;;;;;;8.62;87.67;97897.19;5062146;28;20634;-79
2023/12/26 04:40:04;;;;;;;1.97;1.30;;;;;;;8.65;87.65;97907.53;5062704;28;20720;-79
2023/12/26 04:42:32;;;;;;;2.27;1.37;;;;;;;8.73;87.17;97902.59;5062829;28;20262;-79
2023/12/26 04:44:58;;;;;;;3.63;1.30;;;;;;;8.73;86.96;97900.81;5062960;28;20305;-79
2023/12/26 04:47:25;;;;;;;1.27;1.17;;;;;;;8.76;86.92;97900.59;5062338;28;20294;-79
2023/12/26 04:49:51;;;;;;;1.83;1.30;;;;;;;8.81;86.84;97905.59;5061946;28;20238;-79
2023/12/26 04:52:18;;;;;;;2.87;0.93;;;;;;;8.88;86.66;97901.59;5060880;28;20276;-79
2023/12/26 04:54:45;;;;;;;2.73;1.47;;;;;;;8.84;86.77;97908.00;5060999;28;20298;-80
2023/12/26 04:57:11;;;;;;;2.37;1.17;;;;;;;8.84;87.40;97913.28;5062824;28;20278;-79
2023/12/26 04:59:39;;;;;;;3.20;1.33;;;;;;;8.88;86.40;97901.59;5062516;28;20219;-79
2023/12/26 05:02:06;;;;;;;2.73;1.17;;;;;;;8.94;86.12;97909.94;5063246;28;20676;-79
2023/12/26 05:04:32;;;;;;;2.77;1.07;;;;;;;8.98;85.04;97903.50;5062499;28;20238;-79
2023/12/26 05:06:59;;;;;;;2.57;1.50;;;;;;;8.96;85.12;97908.06;5062602;28;20265;-79
2023/12/26 05:09:26;;;;;;;4.27;1.53;;;;;;;8.91;86.62;97910.16;5063333;28;20275;-79
2023/12/26 05:11:52;;;;;;;2.97;1.17;;;;;;;8.87;86.85;97913.91;5063896;28;20250;-80
2023/12/26 05:14:20;;;;;;;4.23;1.90;;;;;;;8.87;86.49;97907.81;5062821;28;20272;-80
2023/12/26 05:16:49;;;;;;;8.73;2.20;;;;;;;8.95;84.94;97905.50;5062088;28;20301;-79
2023/12/26 05:19:16;;;;;;;2.90;1.70;;;;;;;8.99;85.39;97902.56;5061711;28;20609;-80
2023/12/26 05:21:42;;;;;;;3.67;1.50;;;;;;;8.96;86.31;97908.06;5062768;28;20250;-80
2023/12/26 05:24:09;;;;;;;4.83;1.60;;;;;;;8.91;85.37;97893.47;5059610;28;20243;-79
2023/12/26 05:26:39;;;;;;;2.50;1.23;;;;;;;8.85;85.86;97909.69;5059252;28;20231;-80
2023/12/26 05:29:06;;;;;;;2.90;1.50;;;;;;;8.82;86.44;97912.53;5060632;28;20208;-80
2023/12/26 05:31:32;;;;;;;5.10;1.57;;;;;;;8.78;86.04;97908.41;5061019;28;20230;-80
2023/12/26 05:34:03;;;;;;;3.47;1.90;;;;;;;8.74;86.43;97922.72;5061829;28;20277;-79
2023/12/26 05:36:31;;;;;;;5.80;1.47;;;;;;;8.70;86.96;97931.78;5060589;28;20246;-79
2023/12/26 05:38:58;;;;;;;2.83;1.20;;;;;;;8.64;87.44;97938.28;5060897;28;20270;-80
2023/12/26 05:41:25;;;;;;;4.03;1.17;;;;;;;8.64;88.37;97953.25;5060372;28;20228;-79
2023/12/26 05:43:51;;;;;;;2.07;1.10;;;;;;;8.53;88.85;97947.81;5060399;28;20310;-80
2023/12/26 05:46:19;;;;;;;3.30;1.20;;;;;;;8.50;88.97;97942.78;5060556;28;20319;-80
2023/12/26 05:48:45;;;;;;;6.13;1.40;;;;;;;8.51;88.78;97947.09;5060437;28;20210;-79
2023/12/26 05:51:13;;;;;;;3.20;1.20;;;;;;;8.51;88.68;97955.00;5059503;28;20296;-80
2023/12/26 05:53:40;;;;;;;3.40;1.27;;;;;;;8.44;89.42;97969.50;5060414;28;20209;-80
2023/12/26 05:56:07;;;;;;;2.60;1.10;;;;;;;8.41;89.62;97972.31;5060521;28;20246;-80
2023/12/26 05:58:33;;;;;;;4.47;1.50;;;;;;;8.48;87.70;97952.53;5061061;28;20215;-80
2023/12/26 06:01:01;;;;;;;2.70;1.23;;;;;;;8.48;87.82;97952.53;5060524;28;20243;-80
2023/12/26 06:03:28;;;;;;;2.20;0.97;;;;;;;8.52;87.91;97954.03;5060243;28;20329;-79
2023/12/26 06:05:55;;;;;;;2.60;1.27;;;;;;;8.48;88.13;97952.53;5060258;28;20628;-79
2023/12/26 06:08:23;;;;;;;2.13;1.57;;;;;;;8.44;88.45;97957.16;5062246;28;20295;-81
2023/12/26 06:10:49;;;;;;;3.83;1.50;;;;;;;8.41;89.15;97956.50;5062788;28;20242;-80
2023/12/26 06:13:16;;;;;;;2.37;1.20;;;;;;;8.40;89.69;97965.34;5062773;28;20560;-80
2023/12/26 06:15:42;;;;;;;5.80;1.50;;;;;;;8.38;89.33;97969.88;5063275;28;20313;-80
2023/12/26 06:18:09;;;;;;;3.07;1.10;;;;;;;8.36;90.13;97974.38;5062744;28;20298;-80
2023/12/26 06:20:35;;;;;;;2.70;1.23;;;;;;;8.39;89.02;97969.75;5061883;28;20279;-80
2023/12/26 06:23:02;;;;;;;2.50;1.37;;;;;;;8.39;89.17;97968.94;5063693;28;20661;-79
2023/12/26 06:25:30;;;;;;;2.37;1.00;;;;;;;8.50;87.40;97961.19;5062167;28;20295;-80
2023/12/26 06:27:57;;;;;;;4.27;1.40;;;;;;;8.58;86.02;97959.75;5063061;28;20294;-80
2023/12/26 06:30:23;;;;;;;3.97;1.60;;;;;;;8.56;87.08;97966.91;5062787;28;20211;-80
2023/12/26 06:32:50;;;;;;;5.67;1.47;;;;;;;8.61;85.81;97956.06;5062887;28;20325;-80
2023/12/26 06:35:16;;;;;;;4.20;1.17;;;;;;;8.65;85.13;97950.53;5062045;28;20238;-81
2023/12/26 06:37:43;;;;;;;3.37;1.10;;;;;;;8.61;85.63;97958.69;5062078;28;20207;-81
2023/12/26 06:40:10;;;;;;;3.20;1.03;;;;;;;8.60;86.07;97970.19;5061752;28;20242;-80
2023/12/26 06:42:38;;;;;;;3.30;0.93;;;;;;;8.53;86.72;97976.78;5061756;28;20291;-79
2023/12/26 06:45:06;;;;;;;1.53;1.20;;;;;;;8.45;87.57;97982.53;5063344;28;20277;-81
2023/12/26 06:47:32;;;;;;;1.83;0.90;;;;;;;8.39;87.79;97982.94;5064461;28;20266;-79
2023/12/26 06:49:59;;;;;;;2.63;1.30;;;;;;;8.44;87.16;97978.22;5063818;28;20254;-78
2023/12/26 06:52:26;;;;;;;3.77;1.27;;;;;;;8.44;87.05;97974.75;5064322;28;20584;-79
2023/12/26 06:54:53;;;;;;;2.73;1.47;;;;;;;8.44;86.69;97982.66;5064283;28;20210;-79
2023/12/26 06:57:19;;;;;;;2.13;1.30;;;;;;;8.43;87.48;97975.66;5057529;28;20670;-80
2023/12/26 06:59:50;;;;;;;3.43;1.30;;;;;;;8.37;87.91;97994.50;5054146;28;20297;-80
2023/12/26 07:02:17;;;;;;;4.13;1.43;;;;;;;8.38;88.03;97998.84;5053289;28;20231;-78
2023/12/26 07:04:44;;;;;;;2.60;1.20;;;;;;;8.40;87.52;97999.59;5053522;28;20214;-80
2023/12/26 07:07:10;;;;;;;3.47;1.23;;;;;;;8.42;87.44;98002.97;5056888;28;20326;-79
2023/12/26 07:09:38;;;;;;;4.73;1.53;;;;;;;8.44;86.80;98006.38;5057690;28;20214;-78
2023/12/26 07:12:06;;;;;;;2.00;1.00;;;;;;;8.42;87.79;98013.50;5057773;28;20601;-79
2023/12/26 07:14:33;;;;;;;4.33;1.30;;;;;;;8.40;87.94;98004.84;5061952;28;20232;-79
2023/12/26 07:17:01;;;;;;;4.30;1.20;;;;;;;8.38;88.25;98020.75;5061492;28;20297;-80
2023/12/26 07:19:27;;;;;;;1.93;1.07;;;;;;;8.36;88.42;98016.50;5061523;28;20213;-79
2023/12/26 07:21:54;;;;;;;5.23;1.60;;;;;;;8.34;88.70;98023.66;5059167;28;20239;-80
2023/12/26 07:24:21;;;;;;;1.90;1.20;;;;;;;8.37;88.52;98018.19;5059921;28;20221;-80
2023/12/26 07:26:47;;;;;;;3.47;1.37;;;;;;;8.45;87.74;98031.75;5058263;28;20547;-80
2023/12/26 07:29:14;;;;;;;5.73;1.40;;;;;;;8.48;87.70;98036.81;5061711;28;20214;-78
2023/12/26 07:31:41;;;;;;;5.87;1.30;;;;;;;8.52;87.17;98038.31;5062004;28;20567;-79
2023/12/26 07:34:11;;;;;;;1.77;1.23;;;;;;;8.53;87.38;98040.00;5061362;28;20273;-79
2023/12/26 07:36:37;;;;;;;5.33;1.60;;;;;;;8.52;87.32;98039.16;5061667;28;20257;-79
2023/12/26 07:39:04;;;;;;;3.27;1.80;;;;;;;8.52;87.43;98043.59;5061447;28;20615;-79
2023/12/26 07:41:31;;;;;;;4.53;1.73;;;;;;;8.47;88.25;98056.19;5061212;28;20227;-79
2023/12/26 07:43:58;;;;;;;1.83;1.20;;;;;;;8.50;88.33;98058.66;5061137;28;20278;-79
2023/12/26 07:46:24;;;;;;;2.73;1.20;;;;;;;8.42;88.96;98068.78;5060280;28;20296;-79
2023/12/26 07:48:51;;;;;;;3.63;1.10;;;;;;;8.45;88.45;98079.16;5061494;28;20206;-79
2023/12/26 07:51:19;;;;;;;3.63;1.37;;;;;;;8.45;89.08;98079.16;5061009;28;20300;-79
2023/12/26 07:53:47;;;;;;;4.00;1.40;;;;;;;8.46;88.63;98075.56;5061561;28;20558;-79
2023/12/26 07:56:13;;;;;;;7.50;1.37;;;;;;;8.46;88.59;98083.47;5061734;28;20273;-79
2023/12/26 07:58:40;;;;;;;2.93;1.20;;;;;;;8.51;88.24;98079.59;5061596;28;20249;-79
2023/12/26 08:01:06;;;;;;;5.37;1.30;;;;;;;8.54;87.96;98089.09;5060672;28;20731;-79
2023/12/26 08:03:33;;;;;;;4.20;1.50;;;;;;;8.48;88.87;98090.34;5060359;28;20278;-79
2023/12/26 08:05:59;;;;;;;3.70;1.47;;;;;;;8.47;89.53;98093.06;5060594;28;20234;-79
2023/12/26 08:08:28;;;;;;;3.43;1.60;;;;;;;8.51;88.78;98089.31;5059589;28;20314;-79
2023/12/26 08:10:54;;;;;;;2.97;1.60;;;;;;;8.48;89.30;98100.03;5057289;28;20296;-79
2023/12/26 08:13:21;;;;;;;2.43;1.20;;;;;;;8.46;89.85;98101.91;5056462;28;20224;-79
2023/12/26 08:15:47;;;;;;;1.47;1.03;;;;;;;8.46;90.29;98112.44;5059108;28;20248;-78
2023/12/26 08:18:14;;;;;;;3.23;1.67;;;;;;;8.47;91.30;98111.50;5063803;28;20239;-79
2023/12/26 08:20:41;;;;;;;3.87;1.33;;;;;;;8.47;91.08;98119.41;5064839;28;20741;-79
2023/12/26 08:23:07;;;;;;;2.27;1.37;;;;;;;8.49;90.75;98113.09;5065144;28;20675;-80
2023/12/26 08:25:37;;;;;;;5.50;1.40;;;;;;;8.47;91.31;98117.63;5066244;28;20208;-80
2023/12/26 08:28:04;;;;;;;4.13;1.30;;;;;;;8.48;91.29;98119.31;5067284;28;20705;-79
2023/12/26 08:30:30;;;;;;;5.80;1.57;;;;;;;8.48;91.57;98123.72;5068401;28;20246;-79
2023/12/26 08:32:57;;;;;;;3.83;1.27;;;;;;;8.50;92.26;98124.50;5066089;28;20338;-80
2023/12/26 08:35:24;;;;;;;5.37;1.20;;;;;;;8.48;92.05;98131.63;5067602;28;20252;-80
2023/12/26 08:37:50;;;;;;;2.57;1.30;;;;;;;8.47;92.25;98140.47;5065077;28;20239;-79
2023/12/26 08:40:18;;;;;;;4.17;1.50;;;;;;;8.47;93.10;98132.56;5061684;28;20623;-79
2023/12/26 08:42:46;;;;;;;5.23;1.73;;;;;;;8.49;93.39;98149.13;5061585;28;20733;-80
2023/12/26 08:45:12;;;;;;;4.80;1.83;;;;;;;8.52;93.61;98154.22;5067294;28;20446;-78
2023/12/26 08:47:39;;;;;;;2.53;1.10;;;;;;;8.57;92.64;98150.34;5069277;28;20323;-79
2023/12/26 08:50:07;;;;;;;5.07;1.40;;;;;;;8.59;92.98;98147.63;5060959;28;20734;-79
2023/12/26 08:52:33;;;;;;;3.10;1.53;;;;;;;8.66;91.49;98147.19;5061464;28;20836;-79
2023/12/26 08:55:00;;;;;;;4.33;1.30;;;;;;;8.76;91.10;98144.81;5062131;28;20803;-78
2023/12/26 08:57:26;;;;;;;2.50;1.20;;;;;;;8.77;90.95;98146.50;5059817;28;20262;-79
2023/12/26 08:59:54;;;;;;;3.57;1.30;;;;;;;8.78;90.92;98145.56;5061737;28;20316;-79
2023/12/26 09:02:20;;;;;;;2.30;1.17;;;;;;;8.84;90.79;98156.59;5060103;28;20574;-79
2023/12/26 09:04:47;;;;;;;3.43;1.20;;;;;;;8.86;90.52;98164.38;5080383;28;20215;-78
2023/12/26 09:07:14;;;;;;;2.07;1.40;;;;;;;8.88;90.13;98167.78;5076011;28;20333;-77
2023/12/26 09:09:40;;;;;;;4.50;1.50;;;;;;;8.89;90.24;98174.75;5077063;28;20218;-78
2023/12/26 09:12:07;;;;;;;2.30;1.13;;;;;;;8.90;89.89;98174.66;5072951;28;20314;-77
2023/12/26 09:14:35;;;;;;;4.07;1.30;;;;;;;8.93;89.33;98166.53;5072870;28;20268;-77
2023/12/26 09:17:03;;;;;;;3.33;1.30;;;;;;;9.05;88.53;98175.50;5076930;28;20237;-78
2023/12/26 09:19:30;;;;;;;1.83;1.00;;;;;;;9.10;88.13;98168.13;5078393;28;20246;-78
2023/12/26 09:21:57;;;;;;;1.50;0.97;;;;;;;9.18;87.31;98166.69;5077381;28;20229;-78
2023/12/26 09:24:23;;;;;;;4.00;1.57;;;;;;;9.17;86.72;98174.72;5077669;28;20305;-78
2023/12/26 09:26:50;;;;;;;2.97;1.40;;;;;;;9.20;87.47;98177.16;5077178;28;20397;-78
2023/12/26 09:29:17;;;;;;;2.57;1.10;;;;;;;9.21;87.40;98170.94;5077001;28;20277;-77
2023/12/26 09:31:43;;;;;;;4.80;1.33;;;;;;;9.26;87.42;98179.41;5074699;28;20234;-78
2023/12/26 09:34:11;;;;;;;2.90;1.20;;;;;;;9.29;87.30;98187.09;5077526;28;20306;-78
2023/12/26 09:36:38;;;;;;;3.63;1.20;;;;;;;9.26;88.17;98196.09;5076661;28;20223;-78
2023/12/26 09:39:05;;;;;;;4.30;1.37;;;;;;;9.26;89.01;98204.00;5073970;28;20273;-78
2023/12/26 09:41:31;;;;;;;2.50;1.10;;;;;;;9.32;88.71;98210.66;5072796;28;20317;-78
2023/12/26 09:43:58;;;;;;;2.33;1.03;;;;;;;9.36;88.47;98206.91;5070713;28;20573;-78
2023/12/26 09:46:25;;;;;;;2.60;1.00;;;;;;;9.41;87.63;98203.03;5072291;28;20298;-77
2023/12/26 09:48:51;;;;;;;2.03;1.03;;;;;;;9.46;86.88;98198.31;5073642;28;20219;-77
2023/12/26 09:51:23;;;;;;;2.57;1.00;;;;;;;9.48;87.50;98211.41;5074231;28;20265;-77
2023/12/26 09:53:56;;;;;;;1.57;1.13;;;;;;;9.45;88.28;98228.28;5073699;28;20298;-77
2023/12/26 09:56:25;;;;;;;3.90;1.23;;;;;;;9.46;88.87;98235.25;5074917;28;20210;-78
2023/12/26 09:58:55;;;;;;;3.70;1.07;;;;;;;9.49;88.49;98236.84;5069191;28;20398;-77
2023/12/26 10:01:22;;;;;;;3.90;1.53;;;;;;;9.51;87.76;98241.06;5058158;28;20587;-78
2023/12/26 10:03:48;;;;;;;4.13;1.30;;;;;;;9.55;88.00;98249.66;5068191;28;20257;-78
2023/12/26 10:06:15;;;;;;;2.73;1.17;;;;;;;9.62;87.92;98250.94;5075166;28;20319;-78
2023/12/26 10:08:43;;;;;;;2.47;1.40;;;;;;;9.69;88.21;98252.25;5077049;28;20321;-78
2023/12/26 10:11:13;;;;;;;1.80;0.97;;;;;;;9.72;87.53;98249.44;5076435;28;20227;-78
2023/12/26 10:13:44;;;;;;;2.37;1.23;;;;;;;9.78;86.67;98246.41;5074984;28;20579;-78
2023/12/26 10:16:10;;;;;;;1.27;1.10;;;;;;;9.84;86.93;98246.81;5074797;28;20208;-78
2023/12/26 10:18:38;;;;;;;1.83;0.90;;;;;;;9.87;86.14;98230.81;5072372;28;20381;-77
2023/12/26 10:21:05;;;;;;;2.60;0.83;;;;;;;9.91;85.94;98221.72;5074104;28;20242;-77
2023/12/26 10:23:31;;;;;;;1.87;1.00;;;;;;;9.89;86.56;98222.75;5072313;28;20750;-77
2023/12/26 10:25:59;;;;;;;1.60;1.10;;;;;;;9.88;86.72;98226.34;5073914;28;20316;-80
2023/12/26 10:28:26;;;;;;;3.47;1.20;;;;;;;9.97;85.95;98215.22;5076523;28;20521;-79
2023/12/26 10:30:53;;;;;;;1.40;0.80;;;;;;;9.91;85.04;98210.34;5061814;28;20214;-79
2023/12/26 10:33:25;;;;;;;0.97;0.80;;;;;;;10.01;85.18;98207.00;5079446;28;20248;-78
2023/12/26 10:36:01;;;;;;;1.50;0.80;;;;;;;10.01;85.24;98207.00;5071597;28;20212;-78
2023/12/26 10:38:28;;;;;;;2.40;0.93;;;;;;;9.99;85.65;98210.66;5080409;28;20235;-78
2023/12/26 10:40:58;;;;;;;0.87;0.80;;;;;;;10.02;86.20;98213.09;5077941;28;20275;-78
2023/12/26 10:43:28;;;;;;;3.13;1.13;;;;;;;10.01;86.14;98219.31;5077063;28;20299;-78
2023/12/26 10:45:55;;;;;;;1.13;0.83;;;;;;;10.03;86.94;98235.94;5074331;28;20299;-78
2023/12/26 10:48:22;;;;;;;2.47;0.90;;;;;;;10.07;85.65;98221.59;5075252;28;20229;-78
2023/12/26 10:50:50;;;;;;;1.23;0.90;;;;;;;10.04;85.52;98229.75;5075426;28;20301;-78
2023/12/26 10:53:21;;;;;;;1.03;0.70;;;;;;;10.07;85.42;98234.81;5078117;28;20633;-79
2023/12/26 10:55:49;;;;;;;0.70;0.60;;;;;;;10.06;85.89;98236.63;5078528;28;20215;-79
2023/12/26 10:58:23;;;;;;;1.57;0.90;;;;;;;10.12;86.13;98238.00;5078357;28;20324;-79
2023/12/26 11:00:51;;;;;;;2.20;0.90;;;;;;;10.11;85.79;98239.81;5075800;28;20302;-79
2023/12/26 13:51:31;;;;;;;1.23;0.80;;;;;;;10.19;93.22;98337.88;5059655;28;20725;-79
2023/12/26 13:53:58;;;;;;;1.00;0.60;;;;;;;10.19;93.30;98339.66;5059220;28;20224;-79
2023/12/26 13:56:24;;;;;;;0.63;0.63;;;;;;;10.15;93.84;98346.09;5061911;28;20222;-79
2023/12/26 13:58:50;;;;;;;1.00;0.70;;;;;;;10.18;93.77;98337.97;5062858;28;20205;-80
2023/12/26 14:01:18;;;;;;;0.83;0.60;;;;;;;10.23;93.63;98338.50;5062346;28;20320;-79
2023/12/26 14:03:49;;;;;;;0.77;0.63;;;;;;;10.21;93.47;98329.84;5062545;28;20212;-80
2023/12/26 14:06:17;;;;;;;1.43;0.70;;;;;;;10.23;93.90;98342.03;5062347;28;20218;-79
2023/12/26 14:08:44;;;;;;;0.90;0.53;;;;;;;10.21;94.24;98340.41;5062286;28;20238;-79
2023/12/26 14:11:11;;;;;;;0.47;0.40;;;;;;;10.20;94.28;98349.25;5061913;28;20238;-81
2023/12/26 14:13:37;;;;;;;1.27;0.43;;;;;;;10.17;94.42;98344.19;5061237;28;20212;-81
2023/12/26 14:16:04;;;;;;;0.40;0.40;;;;;;;10.15;94.98;98341.63;5060319;28;20216;-81
2023/12/26 14:18:30;;;;;;;0.73;0.60;;;;;;;10.12;95.21;98362.97;5062578;28;20214;-80
2023/12/26 14:20:57;;;;;;;0.60;0.60;;;;;;;10.12;95.82;98365.63;5058754;28;20213;-79
2023/12/26 14:23:23;;;;;;;0.60;0.40;;;;;;;10.09;95.89;98372.91;5058865;28;20208;-79
2023/12/26 14:25:51;;;;;;;0.63;0.47;;;;;;;10.08;96.17;98371.16;5059289;28;20216;-81